Time;durP1;ratioP1;P1;durP2;ratioP2;P2;SDS_P1;SDS_P2;PMS_P1;PMS_P2;Temp;Humidity;BMP_temperature;BMP_pressure;BME280_temperature;BME280_humidity;BME280_pressure;Samples;Min_cycle;Max_cycle;Signal;HPM_P1;HPM_P2
2023/06/06 00:01:21;;;;;;;10.77;6.10;;;10.50;99.90;;;;;;4909155;28;20040;-76
2023/06/06 00:03:48;;;;;;;10.65;5.68;;;10.50;99.90;;;;;;4931456;28;20058;-76
2023/06/06 00:06:16;;;;;;;9.32;5.82;;;10.50;99.90;;;;;;4896149;28;20126;-75
2023/06/06 00:08:42;;;;;;;6.88;4.75;;;10.60;99.90;;;;;;4898703;28;20094;-76
2023/06/06 00:11:09;;;;;;;7.20;5.05;;;10.60;99.90;;;;;;4931538;28;20131;-78
2023/06/06 00:13:35;;;;;;;9.52;5.57;;;10.70;99.90;;;;;;4940667;28;20052;-76
2023/06/06 00:16:02;;;;;;;9.27;5.18;;;10.70;99.90;;;;;;4926510;28;20052;-78
2023/06/06 00:18:28;;;;;;;8.95;5.25;;;10.70;99.90;;;;;;4907092;28;20414;-75
2023/06/06 00:20:54;;;;;;;8.90;5.38;;;10.70;99.90;;;;;;4907723;29;20055;-75
2023/06/06 00:23:24;;;;;;;7.95;5.65;;;10.70;99.90;;;;;;4905996;28;20106;-75
2023/06/06 00:25:52;;;;;;;11.20;5.85;;;10.70;99.90;;;;;;4894912;28;20032;-76
2023/06/06 00:28:17;;;;;;;10.20;6.30;;;10.80;99.90;;;;;;4935028;28;20039;-75
2023/06/06 00:30:43;;;;;;;10.50;6.30;;;10.70;99.90;;;;;;4904062;29;20472;-76
2023/06/06 00:33:09;;;;;;;7.70;5.78;;;10.80;99.90;;;;;;4925250;28;20413;-76
2023/06/06 00:35:35;;;;;;;7.72;5.47;;;10.80;99.90;;;;;;4951534;28;20118;-75
2023/06/06 00:38:00;;;;;;;7.28;5.45;;;10.90;99.90;;;;;;4908592;28;20357;-78
2023/06/06 00:40:26;;;;;;;8.82;6.18;;;10.90;99.90;;;;;;4928835;28;20123;-78
2023/06/06 00:42:52;;;;;;;7.05;5.25;;;10.90;99.90;;;;;;4918769;28;20079;-75
2023/06/06 00:45:18;;;;;;;10.38;5.75;;;10.90;99.90;;;;;;4897106;29;20036;-75
2023/06/06 00:47:45;;;;;;;7.68;5.85;;;11.00;99.90;;;;;;4911572;28;20047;-74
2023/06/06 00:50:12;;;;;;;10.88;6.10;;;11.00;99.90;;;;;;4927691;28;20126;-75
2023/06/06 00:52:45;;;;;;;9.88;6.32;;;11.00;99.90;;;;;;4929065;28;20047;-77
2023/06/06 00:55:12;;;;;;;10.88;6.55;;;11.00;99.90;;;;;;4908229;28;20058;-76
2023/06/06 00:57:39;;;;;;;8.27;6.35;;;11.00;99.90;;;;;;4925420;28;20113;-76
2023/06/06 01:00:06;;;;;;;8.18;5.45;;;11.00;99.90;;;;;;4898476;28;20047;-75
2023/06/06 01:02:37;;;;;;;9.60;5.95;;;11.00;99.90;;;;;;4926123;28;20118;-75
2023/06/06 01:05:09;;;;;;;8.90;5.95;;;11.10;99.90;;;;;;4952311;28;20040;-76
2023/06/06 01:07:36;;;;;;;9.10;6.13;;;11.10;99.90;;;;;;4924244;28;20105;-74
2023/06/06 01:10:08;;;;;;;12.07;6.30;;;11.10;99.90;;;;;;4942085;28;20036;-76
2023/06/06 01:13:04;;;;;;;10.55;6.32;;;11.10;99.90;;;;;;4903227;28;20066;-77
2023/06/06 01:16:01;;;;;;;9.38;5.97;;;11.10;99.90;;;;;;4936008;28;20105;-77
2023/06/06 01:18:27;;;;;;;9.00;6.53;;;11.20;99.90;;;;;;4921168;28;20142;-75
2023/06/06 01:20:53;;;;;;;11.32;6.43;;;11.20;99.90;;;;;;4894580;28;20139;-79
2023/06/06 01:23:20;;;;;;;9.85;6.07;;;11.20;99.90;;;;;;4925967;28;20435;-77
2023/06/06 01:25:49;;;;;;;9.63;6.07;;;11.20;99.90;;;;;;4902181;29;20127;-75
2023/06/06 01:28:18;;;;;;;11.35;6.32;;;11.30;99.90;;;;;;4923956;28;20071;-77
2023/06/06 01:30:45;;;;;;;10.63;6.25;;;11.30;99.90;;;;;;4892944;29;20048;-77
2023/06/06 01:33:37;;;;;;;10.00;5.95;;;11.30;99.90;;;;;;4903857;28;20051;-76
2023/06/06 01:36:31;;;;;;;10.98;6.38;;;11.30;99.90;;;;;;4928774;28;20039;-78
2023/06/06 01:39:06;;;;;;;9.70;6.82;;;11.30;99.90;;;;;;4927839;28;20051;-77
2023/06/06 01:41:35;;;;;;;13.40;6.82;;;11.40;99.90;;;;;;4926359;28;20052;-77
2023/06/06 01:44:01;;;;;;;9.68;6.10;;;11.40;99.90;;;;;;4911830;28;20050;-76
2023/06/06 01:46:28;;;;;;;9.27;6.68;;;11.30;99.90;;;;;;4940674;28;20067;-77
2023/06/06 01:48:55;;;;;;;9.13;7.18;;;11.40;99.90;;;;;;4916552;28;20715;-76
2023/06/06 01:51:21;;;;;;;10.20;6.70;;;11.40;99.90;;;;;;4924383;29;20039;-76
2023/06/06 01:53:46;;;;;;;11.20;7.28;;;11.40;99.90;;;;;;4938871;28;20042;-80
2023/06/06 01:56:13;;;;;;;11.70;6.90;;;11.50;99.90;;;;;;4938879;28;20102;-76
2023/06/06 01:58:43;;;;;;;11.48;7.20;;;11.40;99.90;;;;;;4924528;28;20056;-78
2023/06/06 02:01:08;;;;;;;9.90;7.05;;;11.40;99.90;;;;;;4885912;29;20150;-75
2023/06/06 02:03:36;;;;;;;11.48;7.05;;;11.40;99.90;;;;;;4894658;28;20060;-75
2023/06/06 02:06:03;;;;;;;11.77;7.25;;;11.20;99.90;;;;;;4909397;29;20066;-75
2023/06/06 02:08:29;;;;;;;9.07;6.38;;;11.30;99.90;;;;;;4925314;28;20043;-75
2023/06/06 02:10:56;;;;;;;8.60;6.45;;;11.20;99.90;;;;;;4890015;28;20062;-77
2023/06/06 02:13:22;;;;;;;9.82;7.50;;;11.10;99.90;;;;;;4910179;28;20093;-77
2023/06/06 02:15:47;;;;;;;10.25;6.75;;;11.10;99.90;;;;;;4948109;28;20411;-80
2023/06/06 02:18:13;;;;;;;11.93;7.10;;;11.00;99.90;;;;;;4919175;28;20043;-76
2023/06/06 02:20:39;;;;;;;10.90;7.43;;;11.00;99.90;;;;;;4899711;28;20051;-78
2023/06/06 02:23:04;;;;;;;10.80;6.53;;;11.00;99.90;;;;;;4929817;28;20079;-76
2023/06/06 02:25:33;;;;;;;17.35;7.32;;;11.00;99.90;;;;;;4934626;28;20086;-76
2023/06/06 02:27:59;;;;;;;13.48;6.60;;;10.90;99.90;;;;;;4911397;28;20047;-76
2023/06/06 02:30:24;;;;;;;12.32;6.82;;;10.80;99.90;;;;;;4916557;28;20093;-75
2023/06/06 02:32:50;;;;;;;10.07;7.18;;;10.70;99.90;;;;;;4915483;28;20040;-79
2023/06/06 02:35:20;;;;;;;10.32;6.63;;;10.70;99.90;;;;;;4909635;28;20587;-75
2023/06/06 02:37:55;;;;;;;9.38;7.32;;;10.70;99.90;;;;;;4939098;28;20110;-75
2023/06/06 02:40:21;;;;;;;9.05;6.43;;;10.60;99.90;;;;;;4901892;28;20040;-78
2023/06/06 02:42:46;;;;;;;10.27;7.65;;;10.70;99.90;;;;;;4902333;29;20075;-77
2023/06/06 02:45:12;;;;;;;14.27;6.82;;;10.60;99.90;;;;;;4885173;28;20400;-76
2023/06/06 02:47:38;;;;;;;9.98;6.32;;;10.60;99.90;;;;;;4955378;28;20087;-78
2023/06/06 02:50:04;;;;;;;10.82;7.30;;;10.50;99.90;;;;;;4934447;28;20035;-79
2023/06/06 02:52:33;;;;;;;11.20;6.63;;;10.60;99.90;;;;;;4966805;28;20876;-77
2023/06/06 02:54:59;;;;;;;10.07;6.97;;;10.70;99.90;;;;;;4926995;28;20423;-77
2023/06/06 02:57:25;;;;;;;12.52;6.63;;;10.70;99.90;;;;;;4938071;28;20134;-78
2023/06/06 02:59:52;;;;;;;10.63;6.72;;;10.70;99.90;;;;;;4914864;28;20120;-78
2023/06/06 03:02:18;;;;;;;13.70;6.82;;;10.70;99.90;;;;;;4889634;28;20067;-80
2023/06/06 03:04:44;;;;;;;11.20;7.07;;;10.80;99.90;;;;;;4924687;28;20073;-78
2023/06/06 03:07:12;;;;;;;11.38;6.70;;;10.70;99.90;;;;;;4929302;29;20044;-77
2023/06/06 03:09:38;;;;;;;13.32;6.38;;;10.60;99.90;;;;;;4909350;28;20083;-78
2023/06/06 03:12:04;;;;;;;13.40;7.32;;;10.60;99.90;;;;;;4918481;28;20048;-79
2023/06/06 03:14:30;;;;;;;11.35;6.60;;;10.70;99.90;;;;;;4945857;28;21236;-76
2023/06/06 03:16:56;;;;;;;9.35;5.95;;;10.60;99.90;;;;;;4929816;28;20047;-77
2023/06/06 03:19:25;;;;;;;8.73;5.95;;;10.50;99.90;;;;;;4880733;28;20134;-78
2023/06/06 03:21:51;;;;;;;13.82;7.68;;;10.50;99.90;;;;;;4926968;28;20674;-78
2023/06/06 03:24:17;;;;;;;10.93;6.45;;;10.60;99.90;;;;;;4956953;28;20039;-79
2023/06/06 03:26:46;;;;;;;8.60;6.75;;;10.60;99.90;;;;;;4948208;28;20052;-79
2023/06/06 03:29:13;;;;;;;12.98;6.85;;;10.50;99.90;;;;;;4919553;28;20039;-77
2023/06/06 03:31:39;;;;;;;10.68;6.82;;;10.50;99.90;;;;;;4909995;28;20093;-76
2023/06/06 03:34:05;;;;;;;9.15;6.55;;;10.50;99.90;;;;;;4925886;28;20047;-77
2023/06/06 03:36:33;;;;;;;10.93;6.38;;;10.50;99.90;;;;;;4927770;29;20047;-80
2023/06/06 03:39:00;;;;;;;10.70;6.38;;;10.50;99.90;;;;;;4927936;28;20178;-79
2023/06/06 03:41:26;;;;;;;10.55;6.80;;;10.50;99.90;;;;;;4954994;28;20045;-76
2023/06/06 03:43:52;;;;;;;10.18;6.70;;;10.50;99.90;;;;;;4903623;28;20078;-77
2023/06/06 03:46:17;;;;;;;10.30;6.28;;;10.50;99.90;;;;;;4939827;28;20054;-79
2023/06/06 03:48:43;;;;;;;14.02;6.88;;;10.50;99.90;;;;;;4913506;28;20040;-75
2023/06/06 03:51:08;;;;;;;10.35;6.57;;;10.50;99.90;;;;;;4903047;29;20032;-80
2023/06/06 03:53:34;;;;;;;9.98;6.00;;;10.60;99.90;;;;;;4878341;29;20079;-77
2023/06/06 03:56:01;;;;;;;9.20;6.50;;;10.60;99.90;;;;;;4904520;28;20059;-77
2023/06/06 03:58:29;;;;;;;11.95;6.63;;;10.50;99.90;;;;;;4924855;28;20134;-76
2023/06/06 04:00:58;;;;;;;10.15;6.68;;;10.60;99.90;;;;;;4928902;28;20455;-78
2023/06/06 04:03:24;;;;;;;12.98;6.72;;;10.70;99.90;;;;;;4913799;28;20365;-77
2023/06/06 04:05:50;;;;;;;11.70;6.53;;;10.80;99.90;;;;;;4927897;28;20078;-77
2023/06/06 04:08:16;;;;;;;8.90;6.72;;;10.90;99.90;;;;;;4927323;28;20063;-77
2023/06/06 04:10:42;;;;;;;11.32;6.65;;;10.80;99.90;;;;;;4928399;28;20056;-75
2023/06/06 04:13:07;;;;;;;11.75;6.70;;;10.90;99.90;;;;;;4916415;28;20050;-75
2023/06/06 04:15:34;;;;;;;12.27;6.47;;;11.00;99.90;;;;;;4927598;29;20077;-79
2023/06/06 04:18:00;;;;;;;11.68;6.45;;;11.00;99.90;;;;;;4878835;28;20040;-77
2023/06/06 04:20:26;;;;;;;8.88;5.70;;;11.00;99.90;;;;;;4926413;29;20048;-79
2023/06/06 04:22:52;;;;;;;16.10;7.43;;;11.20;99.90;;;;;;4979939;28;20041;-76
2023/06/06 04:25:18;;;;;;;10.23;6.88;;;11.20;99.90;;;;;;4892858;29;20439;-77
2023/06/06 04:27:44;;;;;;;8.98;6.88;;;11.30;99.90;;;;;;4911031;28;20040;-77
2023/06/06 04:30:14;;;;;;;9.07;6.93;;;11.30;99.90;;;;;;4910325;28;20637;-79
2023/06/06 04:32:40;;;;;;;12.35;6.80;;;11.40;99.90;;;;;;4891717;29;20032;-79
2023/06/06 04:35:11;;;;;;;11.98;6.57;;;11.50;99.90;;;;;;4908749;28;20032;-77
2023/06/06 04:37:37;;;;;;;10.10;6.80;;;11.60;99.90;;;;;;4902541;29;20510;-79
2023/06/06 04:40:08;;;;;;;11.82;7.35;;;11.70;99.90;;;;;;4910704;28;20040;-76
2023/06/06 04:42:35;;;;;;;8.80;6.30;;;11.70;99.90;;;;;;4906143;28;20060;-78
2023/06/06 04:45:02;;;;;;;11.85;6.57;;;11.90;99.90;;;;;;4937081;28;20048;-76
2023/06/06 04:47:29;;;;;;;13.38;7.00;;;11.90;99.90;;;;;;5016500;28;20052;-76
2023/06/06 04:49:54;;;;;;;12.82;6.78;;;12.20;99.90;;;;;;4924767;28;20047;-78
2023/06/06 04:52:20;;;;;;;13.82;7.18;;;12.10;99.90;;;;;;4949822;28;20042;-77
2023/06/06 04:54:46;;;;;;;12.10;6.68;;;12.20;99.90;;;;;;4901801;28;20032;-78
2023/06/06 04:57:15;;;;;;;14.65;6.93;;;12.20;99.90;;;;;;4924192;29;20118;-78
2023/06/06 04:59:44;;;;;;;9.68;7.05;;;12.40;99.90;;;;;;4937336;28;20050;-74
2023/06/06 05:02:10;;;;;;;10.32;6.07;;;12.40;99.90;;;;;;4907103;29;20032;-78
2023/06/06 05:04:37;;;;;;;9.27;6.10;;;12.50;99.90;;;;;;4877510;29;20047;-79
2023/06/06 05:07:03;;;;;;;14.15;6.50;;;12.50;99.90;;;;;;4918270;29;20079;-75
2023/06/06 05:09:28;;;;;;;13.48;6.90;;;12.60;99.90;;;;;;4907578;28;20129;-76
2023/06/06 05:11:56;;;;;;;11.68;6.43;;;12.70;99.90;;;;;;4924553;28;20040;-75
2023/06/06 05:14:24;;;;;;;11.50;6.35;;;12.80;99.90;;;;;;4888792;29;20105;-77
2023/06/06 05:16:52;;;;;;;11.82;6.38;;;12.80;99.90;;;;;;4920469;28;20492;-78
2023/06/06 05:19:18;;;;;;;12.80;6.68;;;12.90;99.90;;;;;;4891266;28;20126;-78
2023/06/06 05:21:44;;;;;;;15.43;6.28;;;12.90;99.90;;;;;;4903454;29;20682;-77
2023/06/06 05:24:10;;;;;;;11.93;5.85;;;13.00;99.90;;;;;;4893490;28;20058;-82
2023/06/06 05:26:36;;;;;;;12.93;6.53;;;13.10;99.90;;;;;;4911116;29;20415;-76
2023/06/06 05:29:02;;;;;;;9.65;6.10;;;13.20;99.90;;;;;;4893138;29;20046;-76
2023/06/06 05:31:27;;;;;;;13.35;6.38;;;13.30;99.90;;;;;;4916457;28;20043;-80
2023/06/06 05:33:54;;;;;;;9.57;6.18;;;13.30;99.90;;;;;;4926125;29;20508;-76
2023/06/06 05:36:20;;;;;;;12.85;6.15;;;13.30;99.90;;;;;;4910303;28;20062;-75
2023/06/06 05:38:46;;;;;;;12.93;5.85;;;13.40;99.90;;;;;;4891200;28;20044;-76
2023/06/06 05:41:13;;;;;;;11.40;6.63;;;13.40;99.90;;;;;;4907350;28;20089;-75
2023/06/06 05:43:39;;;;;;;10.30;5.38;;;13.50;99.90;;;;;;4908152;29;20122;-76
2023/06/06 05:46:05;;;;;;;9.27;5.68;;;13.50;99.90;;;;;;4907283;29;20143;-76
2023/06/06 05:48:32;;;;;;;11.05;5.80;;;13.60;99.90;;;;;;4901146;28;20036;-73
2023/06/06 05:50:58;;;;;;;9.30;5.68;;;13.70;99.90;;;;;;4901827;28;20054;-74
2023/06/06 05:53:24;;;;;;;9.38;5.05;;;13.90;99.90;;;;;;4918478;28;20488;-76
2023/06/06 05:55:50;;;;;;;14.13;4.68;;;14.00;99.90;;;;;;4903458;28;20411;-78
2023/06/06 05:58:16;;;;;;;8.38;5.35;;;14.30;99.90;;;;;;4901000;28;20043;-75
2023/06/06 06:00:42;;;;;;;10.05;5.05;;;14.20;99.90;;;;;;4886446;28;20047;-75
2023/06/06 06:03:08;;;;;;;10.82;4.68;;;14.20;99.90;;;;;;4915758;28;20057;-77
2023/06/06 06:05:34;;;;;;;9.45;4.30;;;14.30;99.90;;;;;;4925443;28;20040;-75
2023/06/06 06:08:01;;;;;;;8.05;4.50;;;14.20;99.90;;;;;;4879340;28;20063;-76
2023/06/06 06:10:35;;;;;;;7.80;4.75;;;14.40;99.90;;;;;;4910954;28;20132;-76
2023/06/06 06:13:01;;;;;;;9.27;5.05;;;14.50;99.90;;;;;;4905166;28;20112;-73
2023/06/06 06:15:30;;;;;;;9.35;4.63;;;14.60;99.90;;;;;;4925471;28;20036;-76
2023/06/06 06:17:56;;;;;;;10.10;4.10;;;14.80;99.90;;;;;;4919328;28;20040;-75
2023/06/06 06:20:21;;;;;;;9.13;4.20;;;14.90;99.90;;;;;;4917525;28;20040;-73
2023/06/06 06:22:47;;;;;;;8.82;4.50;;;14.80;99.90;;;;;;4900222;28;20075;-73
2023/06/06 06:25:13;;;;;;;8.73;3.80;;;15.00;99.90;;;;;;4905661;28;20118;-75
2023/06/06 06:27:40;;;;;;;6.88;3.65;;;14.90;99.90;;;;;;4920103;29;20051;-73
2023/06/06 06:30:06;;;;;;;8.05;4.10;;;14.90;99.90;;;;;;4890924;28;20044;-76
2023/06/06 06:32:35;;;;;;;6.95;3.53;;;15.00;99.90;;;;;;4908470;28;20888;-75
2023/06/06 06:35:02;;;;;;;7.57;3.58;;;15.00;99.90;;;;;;4920681;28;20090;-75
2023/06/06 06:37:31;;;;;;;5.40;3.60;;;15.10;99.90;;;;;;4906085;28;20454;-75
2023/06/06 06:39:58;;;;;;;7.18;4.13;;;15.40;99.90;;;;;;4909720;28;20047;-76
2023/06/06 06:42:24;;;;;;;7.72;4.15;;;15.60;99.90;;;;;;4900431;29;20058;-71
2023/06/06 06:44:51;;;;;;;8.02;3.88;;;15.60;99.90;;;;;;4905097;28;20044;-78
2023/06/06 06:47:17;;;;;;;9.38;3.83;;;15.90;99.90;;;;;;4891915;28;20464;-76
2023/06/06 06:49:43;;;;;;;8.27;3.90;;;15.90;99.90;;;;;;4895807;28;20036;-78
2023/06/06 06:52:12;;;;;;;7.63;3.80;;;16.30;99.90;;;;;;4902665;28;20051;-78
2023/06/06 06:54:53;;;;;;;6.00;3.42;;;16.50;99.90;;;;;;4925132;28;20376;-77
2023/06/06 06:57:21;;;;;;;9.27;3.60;;;16.70;99.90;;;;;;4904007;28;20082;-73
2023/06/06 06:59:48;;;;;;;8.70;3.75;;;16.90;99.90;;;;;;4898899;28;20067;-73
2023/06/06 07:02:14;;;;;;;6.85;3.97;;;16.30;99.90;;;;;;4896255;29;20205;-77
2023/06/06 07:04:40;;;;;;;6.55;3.50;;;16.10;99.90;;;;;;4924144;28;20475;-79
2023/06/06 07:07:07;;;;;;;9.73;4.43;;;16.10;99.90;;;;;;4926275;28;20169;-77
2023/06/06 07:09:33;;;;;;;7.22;3.88;;;16.50;99.90;;;;;;4936096;28;20086;-75
2023/06/06 07:11:58;;;;;;;11.07;3.88;;;16.90;99.90;;;;;;4927259;28;20064;-75
2023/06/06 07:14:29;;;;;;;5.13;3.67;;;17.20;99.90;;;;;;4911949;28;20050;-75
2023/06/06 07:16:55;;;;;;;7.35;3.97;;;17.00;99.90;;;;;;4902495;28;20043;-76
2023/06/06 07:19:21;;;;;;;6.95;4.07;;;16.80;99.90;;;;;;4912208;28;20044;-75
2023/06/06 07:21:47;;;;;;;6.90;4.15;;;17.10;99.90;;;;;;4927969;29;20051;-74
2023/06/06 07:24:12;;;;;;;7.63;3.95;;;17.30;99.90;;;;;;4903187;28;20472;-74
2023/06/06 07:26:38;;;;;;;10.65;3.47;;;17.50;99.90;;;;;;4904743;28;20082;-74
2023/06/06 07:29:04;;;;;;;5.72;3.80;;;17.10;99.90;;;;;;4912477;28;20035;-76
2023/06/06 07:31:30;;;;;;;10.23;3.80;;;17.30;99.90;;;;;;4927476;28;20054;-75
2023/06/06 07:33:58;;;;;;;10.95;4.15;;;17.70;99.90;;;;;;4923782;28;20047;-77
2023/06/06 07:36:25;;;;;;;9.50;3.92;;;17.70;99.90;;;;;;4911733;28;20073;-78
2023/06/06 07:38:51;;;;;;;7.28;3.90;;;17.70;99.90;;;;;;4929393;28;20511;-76
2023/06/06 07:41:16;;;;;;;7.22;3.55;;;17.60;99.90;;;;;;4925994;28;20058;-75
2023/06/06 07:43:42;;;;;;;8.13;3.60;;;17.50;99.90;;;;;;4927931;28;20464;-75
2023/06/06 07:46:08;;;;;;;5.70;3.40;;;17.30;99.90;;;;;;4894716;28;20163;-76
2023/06/06 07:48:34;;;;;;;6.35;3.50;;;17.50;99.90;;;;;;4904739;28;20028;-79
2023/06/06 07:51:00;;;;;;;7.47;3.88;;;17.30;99.90;;;;;;4927615;28;20131;-76
2023/06/06 07:53:25;;;;;;;6.47;3.70;;;16.90;99.90;;;;;;4921975;28;20046;-75
2023/06/06 07:55:51;;;;;;;6.85;3.60;;;17.00;99.90;;;;;;4927691;28;20059;-77
2023/06/06 07:58:22;;;;;;;5.80;3.83;;;17.10;99.90;;;;;;4905076;28;20036;-75
2023/06/06 08:00:49;;;;;;;7.43;4.28;;;17.00;99.90;;;;;;4908091;28;20036;-75
2023/06/06 08:03:15;;;;;;;7.22;3.92;;;17.20;99.90;;;;;;4912574;28;20487;-74
2023/06/06 08:05:40;;;;;;;7.18;3.58;;;17.40;99.90;;;;;;4900287;28;20040;-74
2023/06/06 08:08:06;;;;;;;5.70;3.70;;;17.70;99.90;;;;;;4907410;28;20036;-78
2023/06/06 08:10:32;;;;;;;6.22;4.00;;;17.80;99.90;;;;;;4902873;28;20048;-78
2023/06/06 08:13:00;;;;;;;7.80;4.18;;;18.00;99.90;;;;;;4902589;28;20043;-75
2023/06/06 08:15:26;;;;;;;4.72;3.65;;;17.50;99.90;;;;;;4908939;28;20047;-75
2023/06/06 08:17:51;;;;;;;5.78;3.88;;;17.70;99.90;;;;;;4926782;28;20051;-76
2023/06/06 08:20:17;;;;;;;8.35;4.05;;;17.50;99.90;;;;;;4928380;28;20059;-76
2023/06/06 08:22:50;;;;;;;6.43;4.07;;;17.80;99.90;;;;;;4926624;28;20035;-75
2023/06/06 08:25:15;;;;;;;8.75;4.32;;;18.10;99.90;;;;;;4910848;28;20043;-75
2023/06/06 08:27:42;;;;;;;8.27;4.43;;;18.20;99.90;;;;;;4913546;29;20325;-74
2023/06/06 08:30:08;;;;;;;8.65;4.32;;;17.90;99.90;;;;;;4926629;28;20132;-76
2023/06/06 08:32:35;;;;;;;7.80;4.57;;;18.30;99.90;;;;;;4924329;29;20043;-77
2023/06/06 08:35:05;;;;;;;5.57;4.32;;;18.30;99.90;;;;;;4922992;28;20036;-75
2023/06/06 08:37:31;;;;;;;8.27;4.65;;;18.30;99.90;;;;;;4926522;28;20431;-76
2023/06/06 08:39:57;;;;;;;10.13;4.60;;;18.30;99.90;;;;;;4925196;28;20048;-77
2023/06/06 08:42:24;;;;;;;7.22;3.88;;;18.60;99.90;;;;;;4904942;29;20068;-76
2023/06/06 08:44:52;;;;;;;7.13;3.97;;;18.70;99.90;;;;;;4892451;28;20130;-80
2023/06/06 08:47:23;;;;;;;9.73;4.80;;;18.30;99.90;;;;;;4926921;29;20074;-75
2023/06/06 08:49:49;;;;;;;8.65;5.03;;;18.50;99.90;;;;;;4924394;28;20114;-73
2023/06/06 08:52:16;;;;;;;8.48;4.45;;;18.60;99.90;;;;;;4926921;29;20114;-76
2023/06/06 08:54:45;;;;;;;9.43;4.50;;;18.80;99.90;;;;;;4902662;28;20078;-76
2023/06/06 08:57:11;;;;;;;9.40;4.75;;;19.00;99.90;;;;;;4912280;28;20120;-76
2023/06/06 08:59:41;;;;;;;5.82;4.40;;;19.20;99.90;;;;;;4894529;29;20599;-79
2023/06/06 09:02:07;;;;;;;8.57;5.50;;;19.10;99.90;;;;;;4911342;28;20047;-73
2023/06/06 09:04:34;;;;;;;7.97;4.50;;;19.20;99.90;;;;;;4925703;28;20052;-79
2023/06/06 09:07:08;;;;;;;7.05;4.18;;;19.40;99.90;;;;;;4905708;28;20138;-74
2023/06/06 09:09:36;;;;;;;7.65;4.78;;;19.60;99.90;;;;;;4902227;28;20042;-75
2023/06/06 09:12:02;;;;;;;5.95;4.45;;;19.00;99.90;;;;;;4913774;28;20047;-75
2023/06/06 09:14:28;;;;;;;10.25;4.60;;;19.50;99.90;;;;;;4892676;28;20040;-75
2023/06/06 09:16:54;;;;;;;7.07;4.50;;;19.80;99.90;;;;;;4924994;28;20484;-77
2023/06/06 09:19:26;;;;;;;14.65;5.30;;;19.90;99.90;;;;;;4911934;28;20043;-78
2023/06/06 09:21:52;;;;;;;7.13;4.90;;;20.20;99.90;;;;;;4906096;28;20058;-75
2023/06/06 09:24:18;;;;;;;8.32;4.65;;;19.90;99.90;;;;;;4892588;29;20071;-76
2023/06/06 09:26:45;;;;;;;11.52;4.95;;;20.20;99.90;;;;;;4921400;28;20396;-78
2023/06/06 09:29:13;;;;;;;6.97;4.50;;;19.90;99.90;;;;;;4895668;29;20039;-76
2023/06/06 09:31:40;;;;;;;9.98;5.07;;;20.00;99.90;;;;;;4927818;28;20044;-74
2023/06/06 09:34:10;;;;;;;6.03;4.80;;;19.70;99.90;;;;;;4928368;29;20048;-75
2023/06/06 09:36:41;;;;;;;6.40;4.57;;;20.20;99.90;;;;;;4923523;28;20530;-77
2023/06/06 09:39:14;;;;;;;8.07;4.80;;;20.60;99.90;;;;;;4924146;28;20058;-76
2023/06/06 09:41:48;;;;;;;7.40;5.18;;;20.80;99.90;;;;;;4924085;28;20054;-78
2023/06/06 09:44:20;;;;;;;8.82;4.22;;;21.20;99.90;;;;;;4901460;28;20465;-79
2023/06/06 09:46:57;;;;;;;9.02;4.53;;;21.60;99.90;;;;;;4921674;28;20118;-75
2023/06/06 09:49:22;;;;;;;7.25;4.40;;;21.00;99.90;;;;;;4919989;28;20040;-78
2023/06/06 09:51:51;;;;;;;6.20;4.30;;;21.20;99.90;;;;;;4908285;28;20138;-77
2023/06/06 09:54:17;;;;;;;8.35;4.40;;;21.80;99.90;;;;;;4921962;28;20388;-76
2023/06/06 09:56:46;;;;;;;8.30;4.38;;;21.70;99.90;;;;;;4907262;28;20060;-76
2023/06/06 09:59:14;;;;;;;6.07;4.15;;;21.40;99.90;;;;;;4920012;28;21629;-76
2023/06/06 10:01:42;;;;;;;6.70;4.88;;;20.90;99.90;;;;;;4909319;29;20047;-79
2023/06/06 10:04:09;;;;;;;5.97;4.55;;;20.90;99.90;;;;;;4923311;28;20082;-77
2023/06/06 10:06:37;;;;;;;7.20;5.00;;;21.30;99.90;;;;;;4889950;29;20099;-79
2023/06/06 10:09:06;;;;;;;5.78;4.20;;;21.50;99.90;;;;;;4919917;28;20119;-75
2023/06/06 10:11:36;;;;;;;5.07;4.18;;;21.90;99.90;;;;;;4889044;28;20039;-78
2023/06/06 10:14:05;;;;;;;5.70;4.30;;;21.80;99.90;;;;;;4909061;28;20051;-79
2023/06/06 10:16:34;;;;;;;6.93;4.93;;;22.10;99.90;;;;;;4907865;28;20054;-75
2023/06/06 10:19:00;;;;;;;5.85;4.65;;;21.50;99.90;;;;;;4909011;28;20043;-78
2023/06/06 10:21:28;;;;;;;7.15;5.18;;;21.40;99.90;;;;;;4881197;28;20048;-79
2023/06/06 10:23:54;;;;;;;9.20;4.43;;;21.90;99.90;;;;;;4907605;28;20575;-78
2023/06/06 10:26:42;;;;;;;6.88;4.95;;;22.10;99.90;;;;;;4905927;28;20047;-78
2023/06/06 10:29:42;;;;;;;9.57;5.15;;;21.70;99.90;;;;;;4926227;28;20032;-79
2023/06/06 10:32:15;;;;;;;8.77;4.63;;;22.00;99.90;;;;;;4905136;28;20844;-77
2023/06/06 10:34:46;;;;;;;6.53;4.70;;;21.70;99.90;;;;;;4908263;28;20036;-77
2023/06/06 10:37:21;;;;;;;7.72;4.65;;;21.60;99.90;;;;;;4911514;29;20090;-78
2023/06/06 10:40:00;;;;;;;6.10;4.60;;;22.00;99.90;;;;;;4928172;28;20126;-76
2023/06/06 10:42:40;;;;;;;6.57;4.03;;;22.10;99.90;;;;;;4938749;28;20052;-80
2023/06/06 10:45:07;;;;;;;6.68;4.40;;;21.90;99.90;;;;;;4911580;28;20050;-77
2023/06/06 10:47:37;;;;;;;6.38;4.10;;;22.60;99.90;;;;;;4913897;28;20051;-77
2023/06/06 10:50:11;;;;;;;6.88;4.22;;;22.40;99.90;;;;;;4926427;28;20050;-77
2023/06/06 10:53:06;;;;;;;7.68;3.85;;;21.80;99.90;;;;;;4925267;28;20135;-79
2023/06/06 10:55:32;;;;;;;8.30;4.55;;;22.40;99.90;;;;;;4929412;29;20059;-77
2023/06/06 10:58:10;;;;;;;4.90;3.70;;;21.90;99.90;;;;;;4915411;29;20054;-79
2023/06/06 11:00:41;;;;;;;4.50;3.42;;;22.30;99.90;;;;;;4912081;29;20044;-77
2023/06/06 11:03:18;;;;;;;5.80;3.75;;;22.30;99.90;;;;;;4920075;28;20369;-78
2023/06/06 11:06:00;;;;;;;9.00;4.47;;;21.90;99.90;;;;;;4910814;29;20412;-79
2023/06/06 11:08:33;;;;;;;5.68;3.53;;;22.60;99.90;;;;;;4911659;28;20055;-80
2023/06/06 11:11:19;;;;;;;6.82;4.13;;;22.70;99.90;;;;;;4926341;29;20535;-78
2023/06/06 11:13:54;;;;;;;4.55;3.70;;;23.00;99.90;;;;;;4910422;28;20102;-78
2023/06/06 11:16:39;;;;;;;7.28;4.10;;;22.90;99.90;;;;;;4927574;29;20075;-76
2023/06/06 11:19:07;;;;;;;;;;;22.50;99.90;;;;;;4914486;28;20071;-75
2023/06/06 11:21:35;;;;;;;6.50;3.92;;;22.30;65.90;;;;;;4910483;28;19919;-76
2023/06/06 11:24:05;;;;;;;7.20;4.32;;;22.10;99.90;;;;;;4907592;28;20048;-79
2023/06/06 11:26:35;;;;;;;6.05;4.20;;;22.10;99.90;;;;;;4898783;28;20052;-76
2023/06/06 11:29:02;;;;;;;6.85;4.20;;;21.90;84.90;;;;;;4906050;28;20117;-78
2023/06/06 11:31:28;;;;;;;7.75;4.60;;;21.50;99.50;;;;;;4905795;28;20040;-75
2023/06/06 11:34:03;;;;;;;6.18;4.13;;;22.00;99.90;;;;;;4927018;28;20574;-78
2023/06/06 11:36:29;;;;;;;7.13;4.20;;;22.00;72.00;;;;;;4907940;28;20047;-76
2023/06/06 11:38:59;;;;;;;9.73;4.22;;;22.20;68.60;;;;;;4927359;28;20046;-81
2023/06/06 11:41:27;;;;;;;6.43;4.78;;;22.50;91.50;;;;;;4924254;29;20598;-76
2023/06/06 11:43:52;;;;;;;6.25;4.03;;;22.10;89.80;;;;;;4913214;28;20130;-81
2023/06/06 11:46:18;;;;;;;6.60;4.40;;;22.30;99.90;;;;;;4924733;28;20595;-78
2023/06/06 11:48:44;;;;;;;6.70;4.05;;;21.70;91.80;;;;;;4913491;28;20181;-81
2023/06/06 11:51:11;;;;;;;7.70;4.63;;;21.70;82.20;;;;;;4928791;28;20040;-79
2023/06/06 11:53:37;;;;;;;6.18;4.35;;;22.30;71.20;;;;;;4913817;28;20419;-77
2023/06/06 11:56:04;;;;;;;6.78;4.00;;;22.20;42.30;;;;;;4894820;28;20079;-78
2023/06/06 11:58:30;;;;;;;5.50;4.35;;;22.00;55.10;;;;;;4904637;28;20070;-81
2023/06/06 12:00:59;;;;;;;5.00;3.50;;;21.90;40.80;;;;;;4926444;28;20488;-80
2023/06/06 12:03:27;;;;;;;5.55;3.53;;;22.30;34.50;;;;;;4928505;28;20036;-80
2023/06/06 12:06:01;;;;;;;6.82;4.03;;;22.30;50.30;;;;;;4908850;28;20044;-78
2023/06/06 12:08:27;;;;;;;;;;;21.80;3.40;;;;;;4921969;28;20071;-79
2023/06/06 12:10:53;;;;;;;6.40;4.22;;;22.10;30.50;;;;;;4912116;28;20034;-78
2023/06/06 12:13:32;;;;;;;6.22;4.10;;;22.60;38.70;;;;;;4905247;28;20046;-82
2023/06/06 12:15:58;;;;;;;4.78;4.05;;;22.00;13.70;;;;;;4917835;28;20050;-81
2023/06/06 12:18:24;;;;;;;7.80;4.75;;;21.80;23.90;;;;;;4903248;28;20055;-81
2023/06/06 12:20:50;;;;;;;7.22;4.03;;;22.50;13.80;;;;;;4895889;28;20472;-77
2023/06/06 12:23:29;;;;;;;5.40;3.58;;;22.30;13.00;;;;;;4894664;28;20051;-77
2023/06/06 12:25:58;;;;;;;9.48;4.95;;;22.10;1.00;;;;;;4890207;28;20052;-76
2023/06/06 12:28:24;;;;;;;5.43;3.63;;;22.30;5.10;;;;;;4912409;28;20047;-80
2023/06/06 12:30:51;;;;;;;8.18;4.32;;;22.10;1.00;;;;;;4928498;29;20066;-78
2023/06/06 12:33:18;;;;;;;8.80;4.22;;;22.20;1.00;;;;;;4912225;28;20035;-78
2023/06/06 12:35:45;;;;;;;7.90;4.15;;;22.60;6.30;;;;;;4922409;28;20043;-80
2023/06/06 12:38:21;;;;;;;7.30;3.90;;;21.70;1.00;;;;;;4896484;28;20377;-81
2023/06/06 12:40:55;;;;;;;7.47;4.22;;;22.30;1.00;;;;;;4911157;28;20066;-79
2023/06/06 12:43:21;;;;;;;5.50;3.88;;;22.60;1.00;;;;;;4928569;28;20544;-79
2023/06/06 12:45:46;;;;;;;7.82;4.15;;;22.40;1.00;;;;;;4897038;29;20075;-83
2023/06/06 12:48:12;;;;;;;6.90;5.00;;;22.40;1.00;;;;;;4900640;28;20081;-79
2023/06/06 12:50:43;;;;;;;8.63;4.60;;;22.30;1.00;;;;;;4927529;28;20044;-77